Terminal Aerodrome Forecast
Issued by NWS

Home | Current Version | Previous Version | Text Only | Print | Product List | Glossary On
Versions: 1 2 3 4 5 6 7 8 9 10 11 12 13 14 15 16 17 18 19 20 21 22 23 24 25 26 27 28 29 30 31 32 33 34 35 36 37 38 39 40 41 42 43 44
530
FTUS43 KDDC 231452 AAA
TAFGCK
TAF AMD
KGCK 231452Z 2315/2412 16015G27KT P6SM SCT012
     FM231900 19027G36KT P6SM BKN150
      TEMPO 2400/2403 VRB30G40KT 3SM -TSRA BKN050CB
     FM240300 16018G26KT P6SM BKN130=

USA.gov is the U.S. government's official web portal to all federal, state and local government web resources and services.